Aérodrome :
LOGIN :

S'inscrire | Disclaimer

   EN    FR    IT 

 










Légende :    VFR   VFR Marginal   IFR   IFR Intensif   IFR Très Intensif
Visi : 
Plafond : 
>= 8 km
>= 3000ft
5 à 8 km
1000 à 3000 ft
1500m à 5 km
500 à 1000 ft
800 à 1500m
200 à 500 ft
< 800m
< 200 ft
Symboles :   Orages  Brouillard  Fortes neiges  Fortes précipitations  Vent > 20 kt
SIGMETs :   Divers  Orages  Givrage  Turbulence  Onde Orograph.  Cendres Volcan.






- Altitude de l'aérodrome : 125 ft
- Code IATA : MGL


EDLN - Mönchengladbach

DERNIER METAR :
  • 232220Z AUTO 15006KT 120V180 9999 // SCT072/// BKN110/// BKN160/// 19/12 Q1000

METARs EXPIRÉS :
  • 232150Z AUTO 15005KT 120V190 9999 // FEW074/// SCT085/// 19/12 Q1000
  • 232120Z AUTO 17005KT 9999 // FEW100/// 18/11 Q1001
  • 232050Z AUTO 17005KT 120V200 9999 // FEW100/// 19/11 Q1001
  • 232020Z AUTO 17005KT 120V210 9999 // FEW097/// 19/11 Q1001
  • 231950Z AUTO 17004KT 120V240 9999 // OVC093/// 20/11 Q1002

TAF TAF EDLN
Valide du 23 à 18h jusqu'au 24 à 03h UTC


231700Z 2318/2403 18005KT 9999 SCT040
TEMPO 2323/2403 26020G30KT SHRA BKN030CB
PROB30
TEMPO 2323/2403 2500 TSRA BKN025CB
BECMG 2323/2402 24010KT



MET'MAP, la Météo Aéronautique d'un coup d'oeil ! - Copyright ORBIFLY Décembre 2007 - Disclaimer

ORBIFLY MET'MAP TEAM :

Programmation & Développement : Alexandra Zaïnal
Sur une idée originale de : Baudouin d'Aumeries
Assistance à la programmation : Marc-Olivier Méhu
Soutien technique & logistique : Manuel Goepfert

Contact : metmap@orbifly.com




SOURCES & CREDITS :

   NOAA